sensor_id;sensor_type;location;lat;lon;timestamp;temperature;humidity
46055;DHT22;31788;6.954;-71.872;2022-11-20T00:01:28;27.60;99.90
46055;DHT22;31788;6.954;-71.872;2022-11-20T00:03:56;27.60;99.90
46055;DHT22;31788;6.954;-71.872;2022-11-20T00:06:24;27.60;99.90
46055;DHT22;31788;6.954;-71.872;2022-11-20T00:08:58;27.60;99.90
46055;DHT22;31788;6.954;-71.872;2022-11-20T00:11:27;27.60;99.90
46055;DHT22;31788;6.954;-71.872;2022-11-20T00:13:57;27.60;99.90
46055;DHT22;31788;6.954;-71.872;2022-11-20T00:16:25;27.60;99.90
46055;DHT22;31788;6.954;-71.872;2022-11-20T00:18:55;27.60;99.90
46055;DHT22;31788;6.954;-71.872;2022-11-20T00:21:25;27.50;99.90
46055;DHT22;31788;6.954;-71.872;2022-11-20T00:23:54;27.50;99.90
46055;DHT22;31788;6.954;-71.872;2022-11-20T00:26:21;27.50;99.90
46055;DHT22;31788;6.954;-71.872;2022-11-20T00:28:57;27.50;99.90
46055;DHT22;31788;6.954;-71.872;2022-11-20T00:31:24;27.50;99.90
46055;DHT22;31788;6.954;-71.872;2022-11-20T00:33:51;27.50;99.90
46055;DHT22;31788;6.954;-71.872;2022-11-20T00:36:23;27.50;99.90
46055;DHT22;31788;6.954;-71.872;2022-11-20T00:38:54;27.40;99.90
46055;DHT22;31788;6.954;-71.872;2022-11-20T00:41:21;27.50;99.90
46055;DHT22;31788;6.954;-71.872;2022-11-20T00:43:49;27.50;99.90
46055;DHT22;31788;6.954;-71.872;2022-11-20T00:46:19;27.40;99.90
46055;DHT22;31788;6.954;-71.872;2022-11-20T00:48:46;27.40;99.90
46055;DHT22;31788;6.954;-71.872;2022-11-20T00:51:15;27.40;99.90
46055;DHT22;31788;6.954;-71.872;2022-11-20T00:53:42;27.30;99.90
46055;DHT22;31788;6.954;-71.872;2022-11-20T00:56:14;27.30;99.90
46055;DHT22;31788;6.954;-71.872;2022-11-20T00:58:44;27.30;99.90
46055;DHT22;31788;6.954;-71.872;2022-11-20T01:01:20;27.30;99.90
46055;DHT22;31788;6.954;-71.872;2022-11-20T01:03:48;27.30;99.90
46055;DHT22;31788;6.954;-71.872;2022-11-20T01:08:50;27.30;99.90
46055;DHT22;31788;6.954;-71.872;2022-11-20T01:11:25;27.20;99.90
46055;DHT22;31788;6.954;-71.872;2022-11-20T01:13:53;27.20;99.90
46055;DHT22;31788;6.954;-71.872;2022-11-20T01:16:26;27.20;99.90
46055;DHT22;31788;6.954;-71.872;2022-11-20T01:18:55;27.20;99.90
46055;DHT22;31788;6.954;-71.872;2022-11-20T01:21:25;27.20;99.90
46055;DHT22;31788;6.954;-71.872;2022-11-20T01:23:52;27.20;99.90
46055;DHT22;31788;6.954;-71.872;2022-11-20T01:26:28;27.20;99.90
46055;DHT22;31788;6.954;-71.872;2022-11-20T01:28:56;27.20;99.90
46055;DHT22;31788;6.954;-71.872;2022-11-20T01:31:25;27.20;99.90
46055;DHT22;31788;6.954;-71.872;2022-11-20T01:33:54;27.20;99.90
46055;DHT22;31788;6.954;-71.872;2022-11-20T01:36:23;27.20;99.90
46055;DHT22;31788;6.954;-71.872;2022-11-20T01:38:58;27.20;99.90
46055;DHT22;31788;6.954;-71.872;2022-11-20T01:41:26;27.20;99.90
46055;DHT22;31788;6.954;-71.872;2022-11-20T01:44:13;27.20;99.90
46055;DHT22;31788;6.954;-71.872;2022-11-20T01:46:52;27.20;99.90
46055;DHT22;31788;6.954;-71.872;2022-11-20T01:49:37;27.20;99.90
46055;DHT22;31788;6.954;-71.872;2022-11-20T01:52:17;27.20;99.90
46055;DHT22;31788;6.954;-71.872;2022-11-20T01:54:59;27.20;99.90
46055;DHT22;31788;6.954;-71.872;2022-11-20T01:57:30;27.20;99.90
46055;DHT22;31788;6.954;-71.872;2022-11-20T02:00:08;27.10;99.90
46055;DHT22;31788;6.954;-71.872;2022-11-20T02:02:37;27.10;99.90
46055;DHT22;31788;6.954;-71.872;2022-11-20T02:07:57;27.10;99.90
46055;DHT22;31788;6.954;-71.872;2022-11-20T02:10:24;27.00;99.90
46055;DHT22;31788;6.954;-71.872;2022-11-20T02:12:51;27.00;99.90
46055;DHT22;31788;6.954;-71.872;2022-11-20T02:15:36;27.00;99.90
46055;DHT22;31788;6.954;-71.872;2022-11-20T02:18:03;27.00;99.90
46055;DHT22;31788;6.954;-71.872;2022-11-20T02:20:30;27.00;99.90
46055;DHT22;31788;6.954;-71.872;2022-11-20T02:23:10;26.90;99.90
46055;DHT22;31788;6.954;-71.872;2022-11-20T02:25:39;26.90;99.90
46055;DHT22;31788;6.954;-71.872;2022-11-20T02:28:07;26.90;99.90
46055;DHT22;31788;6.954;-71.872;2022-11-20T02:30:33;26.90;99.90
46055;DHT22;31788;6.954;-71.872;2022-11-20T02:33:00;27.00;99.90
46055;DHT22;31788;6.954;-71.872;2022-11-20T02:37:55;26.90;99.90
46055;DHT22;31788;6.954;-71.872;2022-11-20T02:40:23;26.90;99.90
46055;DHT22;31788;6.954;-71.872;2022-11-20T02:42:53;26.90;99.90
46055;DHT22;31788;6.954;-71.872;2022-11-20T02:45:21;26.90;99.90
46055;DHT22;31788;6.954;-71.872;2022-11-20T02:47:49;26.90;99.90
46055;DHT22;31788;6.954;-71.872;2022-11-20T02:50:15;26.90;99.90
46055;DHT22;31788;6.954;-71.872;2022-11-20T02:52:42;26.80;99.90
46055;DHT22;31788;6.954;-71.872;2022-11-20T02:55:10;26.80;99.90
46055;DHT22;31788;6.954;-71.872;2022-11-20T02:57:36;26.80;99.90
46055;DHT22;31788;6.954;-71.872;2022-11-20T03:00:04;26.80;99.90
46055;DHT22;31788;6.954;-71.872;2022-11-20T03:02:33;26.80;99.90
46055;DHT22;31788;6.954;-71.872;2022-11-20T03:04:59;26.80;99.90
46055;DHT22;31788;6.954;-71.872;2022-11-20T03:07:26;26.80;99.90
46055;DHT22;31788;6.954;-71.872;2022-11-20T03:09:54;26.80;99.90
46055;DHT22;31788;6.954;-71.872;2022-11-20T03:12:20;26.80;99.90
46055;DHT22;31788;6.954;-71.872;2022-11-20T03:14:47;26.80;99.90
46055;DHT22;31788;6.954;-71.872;2022-11-20T03:17:14;26.80;99.90
46055;DHT22;31788;6.954;-71.872;2022-11-20T03:19:41;26.80;99.90
46055;DHT22;31788;6.954;-71.872;2022-11-20T03:22:08;26.80;99.90
46055;DHT22;31788;6.954;-71.872;2022-11-20T03:24:36;26.80;99.90
46055;DHT22;31788;6.954;-71.872;2022-11-20T03:27:02;26.80;99.90
46055;DHT22;31788;6.954;-71.872;2022-11-20T03:29:29;26.80;99.90
46055;DHT22;31788;6.954;-71.872;2022-11-20T03:31:57;26.80;99.90
46055;DHT22;31788;6.954;-71.872;2022-11-20T03:34:23;26.70;99.90
46055;DHT22;31788;6.954;-71.872;2022-11-20T03:36:50;26.80;99.90
46055;DHT22;31788;6.954;-71.872;2022-11-20T03:39:16;26.80;99.90
46055;DHT22;31788;6.954;-71.872;2022-11-20T03:41:43;26.80;99.90
46055;DHT22;31788;6.954;-71.872;2022-11-20T03:44:11;26.80;99.90
46055;DHT22;31788;6.954;-71.872;2022-11-20T03:46:38;26.80;99.90
46055;DHT22;31788;6.954;-71.872;2022-11-20T03:49:05;26.80;99.90
46055;DHT22;31788;6.954;-71.872;2022-11-20T03:51:33;26.80;99.90
46055;DHT22;31788;6.954;-71.872;2022-11-20T03:54:04;26.80;99.90
46055;DHT22;31788;6.954;-71.872;2022-11-20T03:56:34;26.80;99.90
46055;DHT22;31788;6.954;-71.872;2022-11-20T03:59:02;26.80;99.90
46055;DHT22;31788;6.954;-71.872;2022-11-20T04:01:34;26.80;99.90
46055;DHT22;31788;6.954;-71.872;2022-11-20T04:04:01;26.80;99.90
46055;DHT22;31788;6.954;-71.872;2022-11-20T04:06:30;26.80;99.90
46055;DHT22;31788;6.954;-71.872;2022-11-20T04:08:58;26.80;99.90
46055;DHT22;31788;6.954;-71.872;2022-11-20T04:11:35;26.80;99.90
46055;DHT22;31788;6.954;-71.872;2022-11-20T04:14:04;26.80;99.90
46055;DHT22;31788;6.954;-71.872;2022-11-20T04:16:34;26.80;99.90
46055;DHT22;31788;6.954;-71.872;2022-11-20T04:19:03;26.80;99.80
46055;DHT22;31788;6.954;-71.872;2022-11-20T04:21:31;26.80;99.90
46055;DHT22;31788;6.954;-71.872;2022-11-20T04:23:58;26.80;99.90
46055;DHT22;31788;6.954;-71.872;2022-11-20T04:26:27;26.80;99.90
46055;DHT22;31788;6.954;-71.872;2022-11-20T04:28:57;26.80;99.90
46055;DHT22;31788;6.954;-71.872;2022-11-20T04:31:26;26.80;99.90
46055;DHT22;31788;6.954;-71.872;2022-11-20T04:33:53;26.80;99.90
46055;DHT22;31788;6.954;-71.872;2022-11-20T04:36:23;26.80;99.90
46055;DHT22;31788;6.954;-71.872;2022-11-20T04:39:01;26.80;99.90
46055;DHT22;31788;6.954;-71.872;2022-11-20T04:41:31;26.80;99.90
46055;DHT22;31788;6.954;-71.872;2022-11-20T04:43:59;26.80;99.90
46055;DHT22;31788;6.954;-71.872;2022-11-20T04:46:33;26.70;99.90
46055;DHT22;31788;6.954;-71.872;2022-11-20T04:49:00;26.80;99.90
46055;DHT22;31788;6.954;-71.872;2022-11-20T04:51:28;26.80;99.90
46055;DHT22;31788;6.954;-71.872;2022-11-20T04:53:54;26.70;99.90
46055;DHT22;31788;6.954;-71.872;2022-11-20T04:56:21;26.70;99.90
46055;DHT22;31788;6.954;-71.872;2022-11-20T04:58:48;26.70;99.90
46055;DHT22;31788;6.954;-71.872;2022-11-20T05:01:20;26.70;99.90
46055;DHT22;31788;6.954;-71.872;2022-11-20T05:03:47;26.70;99.90
46055;DHT22;31788;6.954;-71.872;2022-11-20T05:06:16;26.70;99.90
46055;DHT22;31788;6.954;-71.872;2022-11-20T05:08:43;26.60;99.90
46055;DHT22;31788;6.954;-71.872;2022-11-20T05:11:12;26.60;99.90
46055;DHT22;31788;6.954;-71.872;2022-11-20T05:13:39;26.70;99.90
46055;DHT22;31788;6.954;-71.872;2022-11-20T05:16:08;26.70;99.90
46055;DHT22;31788;6.954;-71.872;2022-11-20T05:18:36;26.70;99.90
46055;DHT22;31788;6.954;-71.872;2022-11-20T05:21:03;26.60;99.90
46055;DHT22;31788;6.954;-71.872;2022-11-20T05:23:31;26.60;99.90
46055;DHT22;31788;6.954;-71.872;2022-11-20T05:25:58;26.60;99.90
46055;DHT22;31788;6.954;-71.872;2022-11-20T05:28:26;26.60;99.90
46055;DHT22;31788;6.954;-71.872;2022-11-20T05:30:53;26.60;99.90
46055;DHT22;31788;6.954;-71.872;2022-11-20T05:33:20;26.60;99.90
46055;DHT22;31788;6.954;-71.872;2022-11-20T05:35:46;26.60;99.90
46055;DHT22;31788;6.954;-71.872;2022-11-20T05:38:14;26.60;99.90
46055;DHT22;31788;6.954;-71.872;2022-11-20T05:40:42;26.60;99.90
46055;DHT22;31788;6.954;-71.872;2022-11-20T05:43:09;26.60;99.90
46055;DHT22;31788;6.954;-71.872;2022-11-20T05:45:35;26.50;99.90
46055;DHT22;31788;6.954;-71.872;2022-11-20T05:48:02;26.50;99.90
46055;DHT22;31788;6.954;-71.872;2022-11-20T05:50:29;26.50;99.90
46055;DHT22;31788;6.954;-71.872;2022-11-20T05:52:58;26.50;99.90
46055;DHT22;31788;6.954;-71.872;2022-11-20T05:55:26;26.50;99.90
46055;DHT22;31788;6.954;-71.872;2022-11-20T05:57:55;26.50;99.90
46055;DHT22;31788;6.954;-71.872;2022-11-20T06:00:22;26.50;99.90
46055;DHT22;31788;6.954;-71.872;2022-11-20T06:02:49;26.60;99.90
46055;DHT22;31788;6.954;-71.872;2022-11-20T06:05:15;26.50;99.90
46055;DHT22;31788;6.954;-71.872;2022-11-20T06:07:42;26.60;99.90
46055;DHT22;31788;6.954;-71.872;2022-11-20T06:10:09;26.50;99.90
46055;DHT22;31788;6.954;-71.872;2022-11-20T06:12:35;26.50;99.90
46055;DHT22;31788;6.954;-71.872;2022-11-20T06:15:02;26.50;99.90
46055;DHT22;31788;6.954;-71.872;2022-11-20T06:17:29;26.50;99.90
46055;DHT22;31788;6.954;-71.872;2022-11-20T06:19:56;26.60;99.90
46055;DHT22;31788;6.954;-71.872;2022-11-20T06:22:22;26.60;99.90
46055;DHT22;31788;6.954;-71.872;2022-11-20T06:24:49;26.50;99.90
46055;DHT22;31788;6.954;-71.872;2022-11-20T06:27:16;26.60;99.90
46055;DHT22;31788;6.954;-71.872;2022-11-20T06:29:43;26.60;99.90
46055;DHT22;31788;6.954;-71.872;2022-11-20T06:32:09;26.60;99.90
46055;DHT22;31788;6.954;-71.872;2022-11-20T06:34:36;26.60;99.90
46055;DHT22;31788;6.954;-71.872;2022-11-20T06:37:03;26.60;99.90
46055;DHT22;31788;6.954;-71.872;2022-11-20T06:39:29;26.50;99.90
46055;DHT22;31788;6.954;-71.872;2022-11-20T06:41:56;26.60;99.90
46055;DHT22;31788;6.954;-71.872;2022-11-20T06:44:23;26.50;99.90
46055;DHT22;31788;6.954;-71.872;2022-11-20T06:46:49;26.60;99.90
46055;DHT22;31788;6.954;-71.872;2022-11-20T06:49:16;26.60;99.90
46055;DHT22;31788;6.954;-71.872;2022-11-20T06:51:42;26.50;99.90
46055;DHT22;31788;6.954;-71.872;2022-11-20T06:54:09;26.60;99.90
46055;DHT22;31788;6.954;-71.872;2022-11-20T06:56:35;26.50;99.90
46055;DHT22;31788;6.954;-71.872;2022-11-20T06:59:06;26.50;99.60
46055;DHT22;31788;6.954;-71.872;2022-11-20T07:01:33;26.50;99.70
46055;DHT22;31788;6.954;-71.872;2022-11-20T07:04:01;26.50;99.80
46055;DHT22;31788;6.954;-71.872;2022-11-20T07:06:27;26.50;99.80
46055;DHT22;31788;6.954;-71.872;2022-11-20T07:08:54;26.50;99.90
46055;DHT22;31788;6.954;-71.872;2022-11-20T07:11:21;26.50;99.90
46055;DHT22;31788;6.954;-71.872;2022-11-20T07:13:47;26.40;99.90
46055;DHT22;31788;6.954;-71.872;2022-11-20T07:16:14;26.40;99.90
46055;DHT22;31788;6.954;-71.872;2022-11-20T07:18:41;26.40;99.90
46055;DHT22;31788;6.954;-71.872;2022-11-20T07:21:09;26.50;99.90
46055;DHT22;31788;6.954;-71.872;2022-11-20T07:23:36;26.50;99.90
46055;DHT22;31788;6.954;-71.872;2022-11-20T07:26:07;26.40;99.90
46055;DHT22;31788;6.954;-71.872;2022-11-20T07:28:34;26.40;99.90
46055;DHT22;31788;6.954;-71.872;2022-11-20T07:31:02;26.50;99.90
46055;DHT22;31788;6.954;-71.872;2022-11-20T07:33:28;26.50;99.90
46055;DHT22;31788;6.954;-71.872;2022-11-20T07:35:55;26.40;99.90
46055;DHT22;31788;6.954;-71.872;2022-11-20T07:38:22;26.50;99.90
46055;DHT22;31788;6.954;-71.872;2022-11-20T07:40:48;26.40;99.80
46055;DHT22;31788;6.954;-71.872;2022-11-20T07:43:19;26.50;99.90
46055;DHT22;31788;6.954;-71.872;2022-11-20T07:45:45;26.50;99.80
46055;DHT22;31788;6.954;-71.872;2022-11-20T07:48:12;26.50;99.80
46055;DHT22;31788;6.954;-71.872;2022-11-20T07:50:38;26.50;99.80
46055;DHT22;31788;6.954;-71.872;2022-11-20T07:53:05;26.40;99.80
46055;DHT22;31788;6.954;-71.872;2022-11-20T07:55:32;26.50;99.90
46055;DHT22;31788;6.954;-71.872;2022-11-20T07:57:59;26.40;99.80
46055;DHT22;31788;6.954;-71.872;2022-11-20T08:00:26;26.40;99.90
46055;DHT22;31788;6.954;-71.872;2022-11-20T08:02:53;26.50;99.90
46055;DHT22;31788;6.954;-71.872;2022-11-20T08:05:20;26.40;99.90
46055;DHT22;31788;6.954;-71.872;2022-11-20T08:07:46;26.50;99.90
46055;DHT22;31788;6.954;-71.872;2022-11-20T08:10:14;26.50;99.90
46055;DHT22;31788;6.954;-71.872;2022-11-20T08:12:49;26.50;99.90
46055;DHT22;31788;6.954;-71.872;2022-11-20T08:15:35;26.40;99.90
46055;DHT22;31788;6.954;-71.872;2022-11-20T08:18:10;26.50;99.90
46055;DHT22;31788;6.954;-71.872;2022-11-20T08:20:37;26.40;99.90
46055;DHT22;31788;6.954;-71.872;2022-11-20T08:23:06;26.40;99.90
46055;DHT22;31788;6.954;-71.872;2022-11-20T08:25:34;26.40;99.90
46055;DHT22;31788;6.954;-71.872;2022-11-20T08:28:05;26.40;99.90
46055;DHT22;31788;6.954;-71.872;2022-11-20T08:30:32;26.40;99.90
46055;DHT22;31788;6.954;-71.872;2022-11-20T08:33:08;26.40;99.90
46055;DHT22;31788;6.954;-71.872;2022-11-20T08:35:36;26.30;99.90
46055;DHT22;31788;6.954;-71.872;2022-11-20T08:38:05;26.30;99.90
46055;DHT22;31788;6.954;-71.872;2022-11-20T08:40:32;26.30;99.90
46055;DHT22;31788;6.954;-71.872;2022-11-20T08:43:04;26.30;99.90
46055;DHT22;31788;6.954;-71.872;2022-11-20T08:45:31;26.30;99.90
46055;DHT22;31788;6.954;-71.872;2022-11-20T08:48:03;26.30;99.90
46055;DHT22;31788;6.954;-71.872;2022-11-20T08:50:30;26.30;99.90
46055;DHT22;31788;6.954;-71.872;2022-11-20T08:53:03;26.30;99.90
46055;DHT22;31788;6.954;-71.872;2022-11-20T08:55:29;26.30;99.90
46055;DHT22;31788;6.954;-71.872;2022-11-20T08:57:56;26.40;99.90
46055;DHT22;31788;6.954;-71.872;2022-11-20T09:00:22;26.40;99.90
46055;DHT22;31788;6.954;-71.872;2022-11-20T09:02:49;26.40;99.90
46055;DHT22;31788;6.954;-71.872;2022-11-20T09:05:15;26.40;99.90
46055;DHT22;31788;6.954;-71.872;2022-11-20T09:07:42;26.30;99.90
46055;DHT22;31788;6.954;-71.872;2022-11-20T09:10:08;26.40;99.90
46055;DHT22;31788;6.954;-71.872;2022-11-20T09:12:36;26.40;99.90
46055;DHT22;31788;6.954;-71.872;2022-11-20T09:15:02;26.40;99.90
46055;DHT22;31788;6.954;-71.872;2022-11-20T09:17:29;26.40;99.90
46055;DHT22;31788;6.954;-71.872;2022-11-20T09:19:55;26.40;99.90
46055;DHT22;31788;6.954;-71.872;2022-11-20T09:22:22;26.40;99.90
46055;DHT22;31788;6.954;-71.872;2022-11-20T09:24:48;26.40;99.90
46055;DHT22;31788;6.954;-71.872;2022-11-20T09:27:15;26.40;99.90
46055;DHT22;31788;6.954;-71.872;2022-11-20T09:29:46;26.40;99.90
46055;DHT22;31788;6.954;-71.872;2022-11-20T09:32:13;26.30;99.90
46055;DHT22;31788;6.954;-71.872;2022-11-20T09:34:39;26.30;99.90
46055;DHT22;31788;6.954;-71.872;2022-11-20T09:37:06;26.40;99.90
46055;DHT22;31788;6.954;-71.872;2022-11-20T09:39:33;26.30;99.90
46055;DHT22;31788;6.954;-71.872;2022-11-20T09:44:40;26.30;99.90
46055;DHT22;31788;6.954;-71.872;2022-11-20T09:55:26;26.30;99.90
46055;DHT22;31788;6.954;-71.872;2022-11-20T09:57:54;26.30;99.90
46055;DHT22;31788;6.954;-71.872;2022-11-20T10:00:21;26.30;99.90
46055;DHT22;31788;6.954;-71.872;2022-11-20T10:05:56;26.30;99.90
46055;DHT22;31788;6.954;-71.872;2022-11-20T10:08:17;26.30;99.90
46055;DHT22;31788;6.954;-71.872;2022-11-20T10:10:45;26.30;99.90
46055;DHT22;31788;6.954;-71.872;2022-11-20T10:19:25;26.30;99.90
46055;DHT22;31788;6.954;-71.872;2022-11-20T10:27:48;26.40;99.90
46055;DHT22;31788;6.954;-71.872;2022-11-20T10:30:18;26.40;99.90
46055;DHT22;31788;6.954;-71.872;2022-11-20T10:33:24;26.30;99.90
46055;DHT22;31788;6.954;-71.872;2022-11-20T10:36:16;26.30;99.90
46055;DHT22;31788;6.954;-71.872;2022-11-20T10:38:52;26.30;99.90
46055;DHT22;31788;6.954;-71.872;2022-11-20T10:41:24;26.30;99.90
46055;DHT22;31788;6.954;-71.872;2022-11-20T10:44:09;26.30;99.90
46055;DHT22;31788;6.954;-71.872;2022-11-20T10:46:44;26.30;99.90
46055;DHT22;31788;6.954;-71.872;2022-11-20T10:49:20;26.30;99.90
46055;DHT22;31788;6.954;-71.872;2022-11-20T10:52:04;26.30;99.90
46055;DHT22;31788;6.954;-71.872;2022-11-20T10:54:43;26.30;99.90
46055;DHT22;31788;6.954;-71.872;2022-11-20T11:00:20;26.30;99.90
46055;DHT22;31788;6.954;-71.872;2022-11-20T11:02:51;26.30;99.90
46055;DHT22;31788;6.954;-71.872;2022-11-20T11:07:55;26.30;99.90
46055;DHT22;31788;6.954;-71.872;2022-11-20T11:10:42;26.30;99.90
46055;DHT22;31788;6.954;-71.872;2022-11-20T11:13:22;26.30;99.90
46055;DHT22;31788;6.954;-71.872;2022-11-20T11:15:49;26.30;99.90
46055;DHT22;31788;6.954;-71.872;2022-11-20T11:18:27;26.30;99.90
46055;DHT22;31788;6.954;-71.872;2022-11-20T11:20:55;26.30;99.90
46055;DHT22;31788;6.954;-71.872;2022-11-20T11:23:42;26.30;99.90
46055;DHT22;31788;6.954;-71.872;2022-11-20T11:26:24;26.30;99.90
46055;DHT22;31788;6.954;-71.872;2022-11-20T11:28:58;26.30;99.90
46055;DHT22;31788;6.954;-71.872;2022-11-20T11:31:33;26.40;99.90
46055;DHT22;31788;6.954;-71.872;2022-11-20T11:34:16;26.40;99.90
46055;DHT22;31788;6.954;-71.872;2022-11-20T11:36:55;26.40;99.90
46055;DHT22;31788;6.954;-71.872;2022-11-20T11:39:23;26.40;99.90
46055;DHT22;31788;6.954;-71.872;2022-11-20T11:41:50;26.40;99.90
46055;DHT22;31788;6.954;-71.872;2022-11-20T11:44:28;26.50;99.90
46055;DHT22;31788;6.954;-71.872;2022-11-20T11:47:24;26.50;99.90
46055;DHT22;31788;6.954;-71.872;2022-11-20T11:56:08;26.50;99.90
46055;DHT22;31788;6.954;-71.872;2022-11-20T11:58:43;26.50;99.90
46055;DHT22;31788;6.954;-71.872;2022-11-20T12:01:31;26.50;99.90
46055;DHT22;31788;6.954;-71.872;2022-11-20T12:06:38;26.50;99.90
46055;DHT22;31788;6.954;-71.872;2022-11-20T12:09:10;26.50;99.90
46055;DHT22;31788;6.954;-71.872;2022-11-20T12:12:05;26.60;99.90
46055;DHT22;31788;6.954;-71.872;2022-11-20T12:14:37;26.50;99.90
46055;DHT22;31788;6.954;-71.872;2022-11-20T12:17:10;26.60;99.90
46055;DHT22;31788;6.954;-71.872;2022-11-20T12:19:37;26.60;99.90
46055;DHT22;31788;6.954;-71.872;2022-11-20T12:22:15;26.60;99.90
46055;DHT22;31788;6.954;-71.872;2022-11-20T12:25:03;26.60;99.90
46055;DHT22;31788;6.954;-71.872;2022-11-20T12:30:33;26.70;99.90
46055;DHT22;31788;6.954;-71.872;2022-11-20T12:33:13;26.70;99.90
46055;DHT22;31788;6.954;-71.872;2022-11-20T12:43:32;26.80;99.90
46055;DHT22;31788;6.954;-71.872;2022-11-20T12:52:18;26.80;99.90
46055;DHT22;31788;6.954;-71.872;2022-11-20T12:55:11;26.80;99.90
46055;DHT22;31788;6.954;-71.872;2022-11-20T12:57:50;26.90;99.90
46055;DHT22;31788;6.954;-71.872;2022-11-20T13:00:22;26.90;99.90
46055;DHT22;31788;6.954;-71.872;2022-11-20T13:06:31;26.90;99.90
46055;DHT22;31788;6.954;-71.872;2022-11-20T13:08:35;26.90;99.90
46055;DHT22;31788;6.954;-71.872;2022-11-20T13:19:03;26.90;99.90
46055;DHT22;31788;6.954;-71.872;2022-11-20T13:21:39;27.00;99.90
46055;DHT22;31788;6.954;-71.872;2022-11-20T13:24:07;27.00;99.90
46055;DHT22;31788;6.954;-71.872;2022-11-20T13:26:33;27.00;99.90
46055;DHT22;31788;6.954;-71.872;2022-11-20T13:29:08;27.00;99.90
46055;DHT22;31788;6.954;-71.872;2022-11-20T13:31:37;27.00;99.90
46055;DHT22;31788;6.954;-71.872;2022-11-20T13:34:09;27.00;99.90
46055;DHT22;31788;6.954;-71.872;2022-11-20T13:36:53;27.00;99.90
46055;DHT22;31788;6.954;-71.872;2022-11-20T13:39:34;27.00;99.90
46055;DHT22;31788;6.954;-71.872;2022-11-20T13:42:23;27.00;99.90
46055;DHT22;31788;6.954;-71.872;2022-11-20T13:44:54;27.00;99.90
46055;DHT22;31788;6.954;-71.872;2022-11-20T13:47:24;27.10;99.90
46055;DHT22;31788;6.954;-71.872;2022-11-20T13:49:52;27.10;99.90
46055;DHT22;31788;6.954;-71.872;2022-11-20T13:55:43;27.10;99.90
46055;DHT22;31788;6.954;-71.872;2022-11-20T13:58:24;27.10;99.90
46055;DHT22;31788;6.954;-71.872;2022-11-20T14:01:05;27.10;99.90
46055;DHT22;31788;6.954;-71.872;2022-11-20T14:03:34;27.10;99.90
46055;DHT22;31788;6.954;-71.872;2022-11-20T14:06:14;27.20;99.90
46055;DHT22;31788;6.954;-71.872;2022-11-20T14:08:45;27.20;99.90
46055;DHT22;31788;6.954;-71.872;2022-11-20T14:11:16;27.20;99.90
46055;DHT22;31788;6.954;-71.872;2022-11-20T14:13:59;27.20;99.90
46055;DHT22;31788;6.954;-71.872;2022-11-20T14:16:29;27.20;99.90
46055;DHT22;31788;6.954;-71.872;2022-11-20T14:21:53;27.30;99.90
46055;DHT22;31788;6.954;-71.872;2022-11-20T14:24:21;27.30;99.90
46055;DHT22;31788;6.954;-71.872;2022-11-20T14:26:48;27.30;99.90
46055;DHT22;31788;6.954;-71.872;2022-11-20T14:29:18;27.30;99.90
46055;DHT22;31788;6.954;-71.872;2022-11-20T14:31:47;27.30;99.90
46055;DHT22;31788;6.954;-71.872;2022-11-20T14:34:26;27.30;99.90
46055;DHT22;31788;6.954;-71.872;2022-11-20T14:37:02;27.30;99.90
46055;DHT22;31788;6.954;-71.872;2022-11-20T14:39:40;27.30;99.90
46055;DHT22;31788;6.954;-71.872;2022-11-20T14:42:26;27.30;99.90
46055;DHT22;31788;6.954;-71.872;2022-11-20T14:44:56;27.40;99.90
46055;DHT22;31788;6.954;-71.872;2022-11-20T14:47:30;27.40;99.90
46055;DHT22;31788;6.954;-71.872;2022-11-20T14:49:58;27.30;99.90
46055;DHT22;31788;6.954;-71.872;2022-11-20T14:52:26;27.40;99.90
46055;DHT22;31788;6.954;-71.872;2022-11-20T14:54:55;27.30;99.90
46055;DHT22;31788;6.954;-71.872;2022-11-20T14:59:51;27.40;99.90
46055;DHT22;31788;6.954;-71.872;2022-11-20T15:02:18;27.50;99.90
46055;DHT22;31788;6.954;-71.872;2022-11-20T15:04:49;27.50;99.90
46055;DHT22;31788;6.954;-71.872;2022-11-20T15:07:32;27.50;99.90
46055;DHT22;31788;6.954;-71.872;2022-11-20T15:13:11;27.60;99.90
46055;DHT22;31788;6.954;-71.872;2022-11-20T15:15:49;27.60;99.90
46055;DHT22;31788;6.954;-71.872;2022-11-20T15:18:20;27.70;99.90
46055;DHT22;31788;6.954;-71.872;2022-11-20T15:20:50;27.70;99.90
46055;DHT22;31788;6.954;-71.872;2022-11-20T15:23:18;27.80;99.90
46055;DHT22;31788;6.954;-71.872;2022-11-20T15:25:46;27.80;99.90
46055;DHT22;31788;6.954;-71.872;2022-11-20T15:28:40;27.80;99.90
46055;DHT22;31788;6.954;-71.872;2022-11-20T15:31:12;27.80;99.90
46055;DHT22;31788;6.954;-71.872;2022-11-20T15:33:39;27.90;99.90
46055;DHT22;31788;6.954;-71.872;2022-11-20T15:36:05;28.00;99.90
46055;DHT22;31788;6.954;-71.872;2022-11-20T15:38:32;28.00;99.90
46055;DHT22;31788;6.954;-71.872;2022-11-20T15:40:59;28.00;99.90
46055;DHT22;31788;6.954;-71.872;2022-11-20T15:43:25;28.10;99.90
46055;DHT22;31788;6.954;-71.872;2022-11-20T15:45:59;28.10;99.90
46055;DHT22;31788;6.954;-71.872;2022-11-20T15:48:27;28.20;99.90
46055;DHT22;31788;6.954;-71.872;2022-11-20T15:51:26;28.20;99.90
46055;DHT22;31788;6.954;-71.872;2022-11-20T15:53:51;28.30;99.90
46055;DHT22;31788;6.954;-71.872;2022-11-20T15:56:17;28.30;99.90
46055;DHT22;31788;6.954;-71.872;2022-11-20T15:58:44;28.20;99.90
46055;DHT22;31788;6.954;-71.872;2022-11-20T16:01:18;28.20;99.90
46055;DHT22;31788;6.954;-71.872;2022-11-20T16:03:45;28.30;99.90
46055;DHT22;31788;6.954;-71.872;2022-11-20T16:06:17;28.30;99.90
46055;DHT22;31788;6.954;-71.872;2022-11-20T16:08:43;28.30;99.90
46055;DHT22;31788;6.954;-71.872;2022-11-20T16:11:14;28.30;99.90
46055;DHT22;31788;6.954;-71.872;2022-11-20T16:13:42;28.30;99.90
46055;DHT22;31788;6.954;-71.872;2022-11-20T16:16:32;28.30;99.90
46055;DHT22;31788;6.954;-71.872;2022-11-20T16:18:58;28.20;99.90
46055;DHT22;31788;6.954;-71.872;2022-11-20T16:21:26;28.20;99.90
46055;DHT22;31788;6.954;-71.872;2022-11-20T16:24:00;28.20;99.90
46055;DHT22;31788;6.954;-71.872;2022-11-20T16:26:27;28.20;99.90
46055;DHT22;31788;6.954;-71.872;2022-11-20T16:28:54;28.10;99.90
46055;DHT22;31788;6.954;-71.872;2022-11-20T16:31:22;28.10;99.90
46055;DHT22;31788;6.954;-71.872;2022-11-20T16:33:53;28.00;99.90
46055;DHT22;31788;6.954;-71.872;2022-11-20T16:36:21;28.00;99.90
46055;DHT22;31788;6.954;-71.872;2022-11-20T16:38:53;28.00;99.90
46055;DHT22;31788;6.954;-71.872;2022-11-20T16:41:20;27.90;99.90
46055;DHT22;31788;6.954;-71.872;2022-11-20T16:43:49;27.90;99.90
46055;DHT22;31788;6.954;-71.872;2022-11-20T16:46:18;27.80;99.90
46055;DHT22;31788;6.954;-71.872;2022-11-20T16:49:10;27.80;99.90
46055;DHT22;31788;6.954;-71.872;2022-11-20T16:51:34;27.80;99.90
46055;DHT22;31788;6.954;-71.872;2022-11-20T16:54:02;27.80;99.90
46055;DHT22;31788;6.954;-71.872;2022-11-20T16:56:29;27.70;99.90
46055;DHT22;31788;6.954;-71.872;2022-11-20T16:58:58;27.70;99.90
46055;DHT22;31788;6.954;-71.872;2022-11-20T17:01:25;27.70;99.90
46055;DHT22;31788;6.954;-71.872;2022-11-20T17:04:00;27.60;99.90